sensor_id;sensor_type;location;lat;lon;timestamp;pressure;altitude;pressure_sealevel;temperature;humidity
74437;BME280;62868;52.360;30.424;2024-02-26T00:04:36;1029.6;;;5.7;68.7
74437;BME280;62868;52.360;30.424;2024-02-26T00:09:40;1029.6;;;5.6;68.8
74437;BME280;62868;52.360;30.424;2024-02-26T00:14:18;1029.6;;;5.6;68.8
74437;BME280;62868;52.360;30.424;2024-02-26T00:19:16;1029.6;;;5.6;68.9
74437;BME280;62868;52.360;30.424;2024-02-26T00:24:54;1029.5;;;5.6;68.9
74437;BME280;62868;52.360;30.424;2024-02-26T00:29:32;1029.5;;;5.6;68.9
74437;BME280;62868;52.360;30.424;2024-02-26T00:34:56;1029.5;;;5.6;68.9
74437;BME280;62868;52.360;30.424;2024-02-26T00:39:24;1029.4;;;5.6;68.9
74437;BME280;62868;52.360;30.424;2024-02-26T00:44:46;1029.4;;;5.6;68.9
74437;BME280;62868;52.360;30.424;2024-02-26T00:49:32;1029.4;;;5.6;68.8
74437;BME280;62868;52.360;30.424;2024-02-26T00:54:34;1029.4;;;5.6;68.8
74437;BME280;62868;52.360;30.424;2024-02-26T00:59:48;1029.3;;;5.6;68.7
74437;BME280;62868;52.360;30.424;2024-02-26T01:04:58;1029.3;;;5.6;68.7
74437;BME280;62868;52.360;30.424;2024-02-26T01:09:16;1029.2;;;5.6;68.7
74437;BME280;62868;52.360;30.424;2024-02-26T01:14:58;1029.3;;;5.6;68.7
74437;BME280;62868;52.360;30.424;2024-02-26T01:19:58;1029.2;;;5.5;68.7
74437;BME280;62868;52.360;30.424;2024-02-26T01:24:48;1029.2;;;5.5;68.6
74437;BME280;62868;52.360;30.424;2024-02-26T01:29:38;1029.2;;;5.5;68.6
74437;BME280;62868;52.360;30.424;2024-02-26T01:34:18;1029.2;;;5.5;68.6
74437;BME280;62868;52.360;30.424;2024-02-26T01:39:16;1029.2;;;5.5;68.5
74437;BME280;62868;52.360;30.424;2024-02-26T01:44:32;1029.2;;;5.5;68.5
74437;BME280;62868;52.360;30.424;2024-02-26T01:49:56;1029.2;;;5.4;68.6
74437;BME280;62868;52.360;30.424;2024-02-26T01:54:32;1029.2;;;5.4;68.6
74437;BME280;62868;52.360;30.424;2024-02-26T01:59:18;1029.2;;;5.4;68.6
74437;BME280;62868;52.360;30.424;2024-02-26T02:04:16;1029.2;;;5.3;68.6
74437;BME280;62868;52.360;30.424;2024-02-26T02:09:32;1029.2;;;5.3;68.6
74437;BME280;62868;52.360;30.424;2024-02-26T02:14:32;1029.1;;;5.3;68.6
74437;BME280;62868;52.360;30.424;2024-02-26T02:19:46;1029.1;;;5.4;68.5
74437;BME280;62868;52.360;30.424;2024-02-26T02:24:40;1029.1;;;5.4;68.4
74437;BME280;62868;52.360;30.424;2024-02-26T02:29:42;1029.2;;;5.3;68.4
74437;BME280;62868;52.360;30.424;2024-02-26T02:34:58;1029.1;;;5.3;68.3
74437;BME280;62868;52.360;30.424;2024-02-26T02:39:40;1029.1;;;5.3;68.3
74437;BME280;62868;52.360;30.424;2024-02-26T02:44:30;1029;;;5.3;68.2
74437;BME280;62868;52.360;30.424;2024-02-26T02:49:46;1029;;;5.3;68.2
74437;BME280;62868;52.360;30.424;2024-02-26T02:54:48;1029;;;5.3;68.1
74437;BME280;62868;52.360;30.424;2024-02-26T02:59:18;1029;;;5.3;68
74437;BME280;62868;52.360;30.424;2024-02-26T03:04:38;1029;;;5.3;67.9
74437;BME280;62868;52.360;30.424;2024-02-26T03:09:16;1029;;;5.3;67.8
74437;BME280;62868;52.360;30.424;2024-02-26T03:14:16;1029.1;;;5.3;67.8
74437;BME280;62868;52.360;30.424;2024-02-26T03:19:24;1029.1;;;5.3;67.7
74437;BME280;62868;52.360;30.424;2024-02-26T03:24:24;1029.1;;;5.3;67.6
74437;BME280;62868;52.360;30.424;2024-02-26T03:29:24;1029.1;;;5.2;67.6
74437;BME280;62868;52.360;30.424;2024-02-26T03:34:26;1029;;;5.2;67.5
74437;BME280;62868;52.360;30.424;2024-02-26T03:39:32;1029;;;5.3;67.4
74437;BME280;62868;52.360;30.424;2024-02-26T03:44:58;1029;;;5.2;67.2
74437;BME280;62868;52.360;30.424;2024-02-26T03:49:32;1029;;;5.2;67.2
74437;BME280;62868;52.360;30.424;2024-02-26T03:54:34;1028.9;;;5.2;67.1
74437;BME280;62868;52.360;30.424;2024-02-26T03:59:24;1028.9;;;5.1;67
74437;BME280;62868;52.360;30.424;2024-02-26T04:04:42;1028.9;;;5.1;67
74437;BME280;62868;52.360;30.424;2024-02-26T04:09:48;1028.9;;;5.1;66.9
74437;BME280;62868;52.360;30.424;2024-02-26T04:14:24;1028.9;;;5.1;66.8
74437;BME280;62868;52.360;30.424;2024-02-26T04:19:36;1028.8;;;5.1;66.8
74437;BME280;62868;52.360;30.424;2024-02-26T04:24:46;1028.8;;;5.1;66.7
74437;BME280;62868;52.360;30.424;2024-02-26T04:29:58;1028.8;;;5.1;66.7
74437;BME280;62868;52.360;30.424;2024-02-26T04:34:38;1028.9;;;5.1;66.6
74437;BME280;62868;52.360;30.424;2024-02-26T04:39:58;1028.9;;;5.1;66.5
74437;BME280;62868;52.360;30.424;2024-02-26T04:44:16;1028.9;;;5;66.4
74437;BME280;62868;52.360;30.424;2024-02-26T04:49:24;1029;;;5;66.4
74437;BME280;62868;52.360;30.424;2024-02-26T04:54:28;1029;;;5;66.4
74437;BME280;62868;52.360;30.424;2024-02-26T04:59:32;1029.1;;;5;66.3
74437;BME280;62868;52.360;30.424;2024-02-26T05:04:16;1029.1;;;4.9;66.3
74437;BME280;62868;52.360;30.424;2024-02-26T05:09:58;1029.1;;;4.9;66.3
74437;BME280;62868;52.360;30.424;2024-02-26T05:14:44;1029.1;;;4.9;66.2
74437;BME280;62868;52.360;30.424;2024-02-26T05:19:56;1029.1;;;4.9;66.2
74437;BME280;62868;52.360;30.424;2024-02-26T05:24:54;1029.1;;;4.8;66.1
74437;BME280;62868;52.360;30.424;2024-02-26T05:29:24;1029.1;;;4.8;66.1
74437;BME280;62868;52.360;30.424;2024-02-26T05:34:56;1029.2;;;4.8;66
74437;BME280;62868;52.360;30.424;2024-02-26T05:39:54;1029.2;;;4.8;66
74437;BME280;62868;52.360;30.424;2024-02-26T05:44:46;1029.3;;;4.8;65.9
74437;BME280;62868;52.360;30.424;2024-02-26T05:49:56;1029.4;;;4.8;65.8
74437;BME280;62868;52.360;30.424;2024-02-26T05:54:42;1029.4;;;4.7;65.8
74437;BME280;62868;52.360;30.424;2024-02-26T05:59:48;1029.6;;;4.7;65.6
74437;BME280;62868;52.360;30.424;2024-02-26T06:04:56;1029.6;;;4.7;65.5
74437;BME280;62868;52.360;30.424;2024-02-26T06:09:36;1029.5;;;4.7;65.4
74437;BME280;62868;52.360;30.424;2024-02-26T06:14:56;1029.5;;;4.7;65.2
74437;BME280;62868;52.360;30.424;2024-02-26T06:19:36;1029.5;;;4.8;65.1
74437;BME280;62868;52.360;30.424;2024-02-26T06:24:38;1029.5;;;4.8;65
74437;BME280;62868;52.360;30.424;2024-02-26T06:29:46;1029.4;;;4.8;64.9
74437;BME280;62868;52.360;30.424;2024-02-26T06:34:32;1029.4;;;4.8;64.8
74437;BME280;62868;52.360;30.424;2024-02-26T06:39:24;1029.4;;;4.8;64.8
74437;BME280;62868;52.360;30.424;2024-02-26T06:44:54;1029.4;;;4.8;64.7
74437;BME280;62868;52.360;30.424;2024-02-26T06:49:46;1029.3;;;4.7;64.7
74437;BME280;62868;52.360;30.424;2024-02-26T06:54:54;1029.3;;;4.8;64.6
74437;BME280;62868;52.360;30.424;2024-02-26T06:59:46;1029.4;;;4.8;64.4
74437;BME280;62868;52.360;30.424;2024-02-26T07:04:36;1029.4;;;4.9;64.3
74437;BME280;62868;52.360;30.424;2024-02-26T07:09:54;1029.4;;;5;64.1
74437;BME280;62868;52.360;30.424;2024-02-26T07:14:54;1029.5;;;5.1;63.9
74437;BME280;62868;52.360;30.424;2024-02-26T07:19:44;1029.4;;;5;63.9
74437;BME280;62868;52.360;30.424;2024-02-26T07:24:32;1029.5;;;5;63.9
74437;BME280;62868;52.360;30.424;2024-02-26T07:29:40;1029.5;;;5.1;63.6
74437;BME280;62868;52.360;30.424;2024-02-26T07:34:24;1029.5;;;5.1;63.5
74437;BME280;62868;52.360;30.424;2024-02-26T07:39:54;1029.5;;;5;63.4
74437;BME280;62868;52.360;30.424;2024-02-26T07:44:44;1029.6;;;5.1;63.3
74437;BME280;62868;52.360;30.424;2024-02-26T07:49:54;1029.5;;;5.2;63.1
74437;BME280;62868;52.360;30.424;2024-02-26T07:54:44;1029.5;;;5.3;63
74437;BME280;62868;52.360;30.424;2024-02-26T07:59:52;1029.5;;;5.5;62.8
74437;BME280;62868;52.360;30.424;2024-02-26T08:04:16;1029.5;;;5.6;62.6
74437;BME280;62868;52.360;30.424;2024-02-26T08:09:16;1029.4;;;5.7;62.5
74437;BME280;62868;52.360;30.424;2024-02-26T08:14:24;1029.2;;;5.8;62.4
74437;BME280;62868;52.360;30.424;2024-02-26T08:19:24;1029.2;;;5.9;62.2
74437;BME280;62868;52.360;30.424;2024-02-26T08:24:38;1029.2;;;6;62
74437;BME280;62868;52.360;30.424;2024-02-26T08:29:32;1029;;;6;61.7
74437;BME280;62868;52.360;30.424;2024-02-26T08:34:56;1029.1;;;5.9;61.7
74437;BME280;62868;52.360;30.424;2024-02-26T08:39:16;1029.1;;;5.9;61.7
74437;BME280;62868;52.360;30.424;2024-02-26T08:44:54;1029.2;;;6.1;61.5
74437;BME280;62868;52.360;30.424;2024-02-26T08:49:16;1029.3;;;6.4;61.2
74437;BME280;62868;52.360;30.424;2024-02-26T08:54:44;1029.3;;;6.5;61.2
74437;BME280;62868;52.360;30.424;2024-02-26T08:59:16;1029.3;;;6.5;61.1
74437;BME280;62868;52.360;30.424;2024-02-26T09:04:40;1029.4;;;6.3;61.1
74437;BME280;62868;52.360;30.424;2024-02-26T09:09:54;1029.3;;;6.1;61.2
74437;BME280;62868;52.360;30.424;2024-02-26T09:14:24;1029.3;;;6;61.1
74437;BME280;62868;52.360;30.424;2024-02-26T09:19:16;1029.3;;;6;61.1
74437;BME280;62868;52.360;30.424;2024-02-26T09:24:54;1029.3;;;6;61.1
74437;BME280;62868;52.360;30.424;2024-02-26T09:29:48;1029.3;;;6;61
74437;BME280;62868;52.360;30.424;2024-02-26T09:34:18;1029.2;;;6.1;61.1
74437;BME280;62868;52.360;30.424;2024-02-26T09:39:46;1029.2;;;6.2;60.9
74437;BME280;62868;52.360;30.424;2024-02-26T09:44:18;1029.2;;;6.4;60.8
74437;BME280;62868;52.360;30.424;2024-02-26T09:49:40;1029.1;;;6.6;60.5
74437;BME280;62868;52.360;30.424;2024-02-26T09:54:16;1029.1;;;6.8;60.5
74437;BME280;62868;52.360;30.424;2024-02-26T09:59:17;1029.1;;;6.7;60.5
74437;BME280;62868;52.360;30.424;2024-02-26T10:04:16;1029.2;;;6.7;60.5
74437;BME280;62868;52.360;30.424;2024-02-26T10:09:24;1029.1;;;6.5;60.6
74437;BME280;62868;52.360;30.424;2024-02-26T10:14:16;1029.1;;;6.5;60.6
74437;BME280;62868;52.360;30.424;2024-02-26T10:20:01;1029;;;6.5;60.5
74437;BME280;62868;52.360;30.424;2024-02-26T10:24:46;1029;;;6.7;60.3
74437;BME280;62868;52.360;30.424;2024-02-26T10:29:42;1029;;;6.9;59.9
74437;BME280;62868;52.360;30.424;2024-02-26T10:34:32;1028.9;;;7.1;59.6
74437;BME280;62868;52.360;30.424;2024-02-26T10:39:46;1029;;;7.2;59.6
74437;BME280;62868;52.360;30.424;2024-02-26T10:44:26;1029;;;7;59.7
74437;BME280;62868;52.360;30.424;2024-02-26T10:49:24;1029;;;7;59.6
74437;BME280;62868;52.360;30.424;2024-02-26T10:54:16;1029;;;7.1;59.6
74437;BME280;62868;52.360;30.424;2024-02-26T10:59:34;1028.9;;;7.1;59.5
74437;BME280;62868;52.360;30.424;2024-02-26T11:04:58;1028.9;;;7.3;59.4
74437;BME280;62868;52.360;30.424;2024-02-26T11:09:39;1029;;;7.5;59.3
74437;BME280;62868;52.360;30.424;2024-02-26T11:14:48;1029;;;7.5;59.2
74437;BME280;62868;52.360;30.424;2024-02-26T11:19:32;1028.9;;;7.7;59
74437;BME280;62868;52.360;30.424;2024-02-26T11:24:56;1028.9;;;7.8;58.8
74437;BME280;62868;52.360;30.424;2024-02-26T11:29:29;1028.9;;;7.9;58.7
74437;BME280;62868;52.360;30.424;2024-02-26T11:34:24;1028.9;;;8;58.5
74437;BME280;62868;52.360;30.424;2024-02-26T11:39:46;1029;;;8.1;58.4
74437;BME280;62868;52.360;30.424;2024-02-26T11:44:58;1029;;;8.2;58.4
74437;BME280;62868;52.360;30.424;2024-02-26T11:49:48;1029;;;8.2;58.5
74437;BME280;62868;52.360;30.424;2024-02-26T11:54:58;1029;;;8;58.6
74437;BME280;62868;52.360;30.424;2024-02-26T11:59:49;1029;;;7.8;58.7
74437;BME280;62868;52.360;30.424;2024-02-26T12:04:27;1029.1;;;7.6;58.9
74437;BME280;62868;52.360;30.424;2024-02-26T12:09:33;1029.2;;;7.6;58.9
74437;BME280;62868;52.360;30.424;2024-02-26T12:14:50;1029.2;;;7.6;58.9
74437;BME280;62868;52.360;30.424;2024-02-26T12:19:33;1029.1;;;7.7;58.9
74437;BME280;62868;52.360;30.424;2024-02-26T12:24:32;1029.1;;;7.7;58.9
74437;BME280;62868;52.360;30.424;2024-02-26T12:29:30;1029.1;;;7.7;59
74437;BME280;62868;52.360;30.424;2024-02-26T12:34:48;1029.1;;;7.7;59.1
74437;BME280;62868;52.360;30.424;2024-02-26T12:39:58;1029.1;;;7.7;59.1
74437;BME280;62868;52.360;30.424;2024-02-26T12:44:30;1029;;;7.8;59.1
74437;BME280;62868;52.360;30.424;2024-02-26T12:49:58;1029;;;7.9;59.1
74437;BME280;62868;52.360;30.424;2024-02-26T12:54:24;1029;;;8;59
74437;BME280;62868;52.360;30.424;2024-02-26T12:59:16;1029;;;8.1;58.9
74437;BME280;62868;52.360;30.424;2024-02-26T13:04:18;1029.1;;;8.2;58.9
74437;BME280;62868;52.360;30.424;2024-02-26T13:09:33;1029.1;;;8.2;58.9
74437;BME280;62868;52.360;30.424;2024-02-26T13:14:28;1029.1;;;8.1;58.9
74437;BME280;62868;52.360;30.424;2024-02-26T13:19:56;1029.1;;;8.2;58.9
74437;BME280;62868;52.360;30.424;2024-02-26T13:24:52;1029.1;;;8.2;58.9
74437;BME280;62868;52.360;30.424;2024-02-26T13:30:05;1029.2;;;8.3;58.9
74437;BME280;62868;52.360;30.424;2024-02-26T13:35:04;1029.2;;;8.3;58.9
74437;BME280;62868;52.360;30.424;2024-02-26T13:39:21;1029.3;;;8.4;58.9
74437;BME280;62868;52.360;30.424;2024-02-26T13:44:58;1029.3;;;8.6;58.6
74437;BME280;62868;52.360;30.424;2024-02-26T13:49:36;1029.2;;;8.7;58.7
74437;BME280;62868;52.360;30.424;2024-02-26T13:54:48;1029.2;;;8.7;58.7
74437;BME280;62868;52.360;30.424;2024-02-26T13:59:32;1029.2;;;8.7;58.7
74437;BME280;62868;52.360;30.424;2024-02-26T14:04:35;1029.3;;;8.8;58.7
74437;BME280;62868;52.360;30.424;2024-02-26T14:09:40;1029.3;;;8.8;58.8
74437;BME280;62868;52.360;30.424;2024-02-26T14:14:58;1029.3;;;8.6;59
74437;BME280;62868;52.360;30.424;2024-02-26T14:19:38;1029.4;;;8.5;59
74437;BME280;62868;52.360;30.424;2024-02-26T14:24:58;1029.4;;;8.5;59.1
74437;BME280;62868;52.360;30.424;2024-02-26T14:29:30;1029.4;;;8.4;59.1
74437;BME280;62868;52.360;30.424;2024-02-26T14:34:42;1029.4;;;8.3;59.2
74437;BME280;62868;52.360;30.424;2024-02-26T14:39:38;1029.5;;;8.2;59.2
74437;BME280;62868;52.360;30.424;2024-02-26T14:44:25;1029.5;;;8.2;59.3
74437;BME280;62868;52.360;30.424;2024-02-26T14:49:48;1029.4;;;8.2;59.3
74437;BME280;62868;52.360;30.424;2024-02-26T14:54:25;1029.4;;;8.2;59.3
74437;BME280;62868;52.360;30.424;2024-02-26T14:59:48;1029.5;;;8.2;59.3
74437;BME280;62868;52.360;30.424;2024-02-26T15:04:32;1029.5;;;8.1;59.3
74437;BME280;62868;52.360;30.424;2024-02-26T15:09:56;1029.4;;;8.1;59.4
74437;BME280;62868;52.360;30.424;2024-02-26T15:14:32;1029.5;;;8;59.4
74437;BME280;62868;52.360;30.424;2024-02-26T15:19:20;1029.5;;;7.9;59.4
74437;BME280;62868;52.360;30.424;2024-02-26T15:24:32;1029.5;;;7.9;59.4
74437;BME280;62868;52.360;30.424;2024-02-26T15:29:44;1029.6;;;7.8;59.4
74437;BME280;62868;52.360;30.424;2024-02-26T15:34:30;1029.6;;;7.8;59.5
74437;BME280;62868;52.360;30.424;2024-02-26T15:39:42;1029.7;;;7.8;59.6
74437;BME280;62868;52.360;30.424;2024-02-26T15:44:59;1029.7;;;7.7;59.7
74437;BME280;62868;52.360;30.424;2024-02-26T15:49:26;1029.8;;;7.6;59.9
74437;BME280;62868;52.360;30.424;2024-02-26T15:54:46;1029.9;;;7.6;60
74437;BME280;62868;52.360;30.424;2024-02-26T15:59:59;1029.9;;;7.6;60
74437;BME280;62868;52.360;30.424;2024-02-26T16:04:56;1029.8;;;7.6;60
74437;BME280;62868;52.360;30.424;2024-02-26T16:09:50;1029.9;;;7.6;60.1
74437;BME280;62868;52.360;30.424;2024-02-26T16:14:21;1030;;;7.6;60.1
74437;BME280;62868;52.360;30.424;2024-02-26T16:19:17;1030;;;7.6;60.2
74437;BME280;62868;52.360;30.424;2024-02-26T16:24:32;1030;;;7.5;60.3
74437;BME280;62868;52.360;30.424;2024-02-26T16:29:26;1030.1;;;7.5;60.3
74437;BME280;62868;52.360;30.424;2024-02-26T16:34:17;1030.2;;;7.6;60.3
74437;BME280;62868;52.360;30.424;2024-02-26T16:39:46;1030.3;;;7.6;60.4
74437;BME280;62868;52.360;30.424;2024-02-26T16:44:40;1030.3;;;7.6;60.4
74437;BME280;62868;52.360;30.424;2024-02-26T16:49:39;1030.3;;;7.6;60.4
74437;BME280;62868;52.360;30.424;2024-02-26T16:54:57;1030.2;;;7.6;60.4
74437;BME280;62868;52.360;30.424;2024-02-26T16:59:23;1030.3;;;7.6;60.5
74437;BME280;62868;52.360;30.424;2024-02-26T17:04:46;1030.4;;;7.6;60.5
74437;BME280;62868;52.360;30.424;2024-02-26T17:09:25;1030.5;;;7.7;60.6
74437;BME280;62868;52.360;30.424;2024-02-26T17:14:40;1030.5;;;7.7;60.6
74437;BME280;62868;52.360;30.424;2024-02-26T17:19:57;1030.6;;;7.8;60.6
74437;BME280;62868;52.360;30.424;2024-02-26T17:24:57;1030.7;;;7.8;60.6
74437;BME280;62868;52.360;30.424;2024-02-26T17:29:16;1030.8;;;7.7;60.7
74437;BME280;62868;52.360;30.424;2024-02-26T17:34:43;1030.7;;;7.7;60.7
74437;BME280;62868;52.360;30.424;2024-02-26T17:39:57;1030.8;;;7.7;60.8
74437;BME280;62868;52.360;30.424;2024-02-26T17:44:49;1030.8;;;7.6;60.9
74437;BME280;62868;52.360;30.424;2024-02-26T17:49:39;1030.8;;;7.5;61
74437;BME280;62868;52.360;30.424;2024-02-26T17:54:17;1030.7;;;7.5;61.1
74437;BME280;62868;52.360;30.424;2024-02-26T17:59:31;1030.8;;;7.4;61.1
74437;BME280;62868;52.360;30.424;2024-02-26T18:04:25;1030.8;;;7.4;61.1
74437;BME280;62868;52.360;30.424;2024-02-26T18:09:27;1030.8;;;7.5;61.1
74437;BME280;62868;52.360;30.424;2024-02-26T18:14:41;1030.8;;;7.5;61.2
74437;BME280;62868;52.360;30.424;2024-02-26T18:19:41;1030.8;;;7.4;61.2
74437;BME280;62868;52.360;30.424;2024-02-26T18:24:53;1030.7;;;7.5;61.2
74437;BME280;62868;52.360;30.424;2024-02-26T18:29:55;1030.8;;;7.5;61.2
74437;BME280;62868;52.360;30.424;2024-02-26T18:34:49;1030.9;;;7.5;61.3
74437;BME280;62868;52.360;30.424;2024-02-26T18:39:41;1030.9;;;7.4;61.3
74437;BME280;62868;52.360;30.424;2024-02-26T18:44:17;1030.9;;;7.4;61.4
74437;BME280;62868;52.360;30.424;2024-02-26T18:49:33;1030.9;;;7.4;61.4
74437;BME280;62868;52.360;30.424;2024-02-26T18:54:51;1030.9;;;7.3;61.4
74437;BME280;62868;52.360;30.424;2024-02-26T18:59:17;1031;;;7.4;61.4
74437;BME280;62868;52.360;30.424;2024-02-26T19:04:17;1031;;;7.4;61.4
74437;BME280;62868;52.360;30.424;2024-02-26T19:09:49;1031;;;7.4;61.4
74437;BME280;62868;52.360;30.424;2024-02-26T19:14:59;1031;;;7.3;61.5
74437;BME280;62868;52.360;30.424;2024-02-26T19:19:29;1031.1;;;7.3;61.6
74437;BME280;62868;52.360;30.424;2024-02-26T19:24:27;1031.1;;;7.3;61.6
74437;BME280;62868;52.360;30.424;2024-02-26T19:29:33;1031.1;;;7.3;61.6
74437;BME280;62868;52.360;30.424;2024-02-26T19:34:17;1031.2;;;7.3;61.6
74437;BME280;62868;52.360;30.424;2024-02-26T19:39:39;1031.3;;;7.3;61.7
74437;BME280;62868;52.360;30.424;2024-02-26T19:44:33;1031.4;;;7.3;61.6
74437;BME280;62868;52.360;30.424;2024-02-26T19:49:39;1031.4;;;7.3;61.7
74437;BME280;62868;52.360;30.424;2024-02-26T19:54:59;1031.4;;;7.3;61.7
74437;BME280;62868;52.360;30.424;2024-02-26T19:59:47;1031.4;;;7.2;61.7
74437;BME280;62868;52.360;30.424;2024-02-26T20:04:57;1031.4;;;7.2;61.8
74437;BME280;62868;52.360;30.424;2024-02-26T20:09:57;1031.5;;;7.2;61.8
74437;BME280;62868;52.360;30.424;2024-02-26T20:14:17;1031.6;;;7.2;61.8
74437;BME280;62868;52.360;30.424;2024-02-26T20:19:57;1031.6;;;7.2;61.8
74437;BME280;62868;52.360;30.424;2024-02-26T20:24:57;1031.6;;;7.2;61.8
74437;BME280;62868;52.360;30.424;2024-02-26T20:29:47;1031.7;;;7.2;61.8
74437;BME280;62868;52.360;30.424;2024-02-26T20:34:26;1031.7;;;7.1;61.8
74437;BME280;62868;52.360;30.424;2024-02-26T20:39:33;1031.7;;;7.1;61.9
74437;BME280;62868;52.360;30.424;2024-02-26T20:44:27;1031.8;;;7;61.9
74437;BME280;62868;52.360;30.424;2024-02-26T20:49:57;1031.8;;;7;62
74437;BME280;62868;52.360;30.424;2024-02-26T20:54:35;1031.9;;;7;61.9
74437;BME280;62868;52.360;30.424;2024-02-26T20:59:57;1031.9;;;7;62
74437;BME280;62868;52.360;30.424;2024-02-26T21:04:17;1032;;;7;62
74437;BME280;62868;52.360;30.424;2024-02-26T21:09:17;1032;;;6.9;62
74437;BME280;62868;52.360;30.424;2024-02-26T21:14:25;1032.1;;;6.9;62
74437;BME280;62868;52.360;30.424;2024-02-26T21:19:47;1032.2;;;6.9;62
74437;BME280;62868;52.360;30.424;2024-02-26T21:24:25;1032.3;;;6.8;62
74437;BME280;62868;52.360;30.424;2024-02-26T21:29:25;1032.3;;;6.9;62
74437;BME280;62868;52.360;30.424;2024-02-26T21:34:49;1032.4;;;6.8;62
74437;BME280;62868;52.360;30.424;2024-02-26T21:39:25;1032.4;;;6.8;62
74437;BME280;62868;52.360;30.424;2024-02-26T21:44:57;1032.5;;;6.7;62
74437;BME280;62868;52.360;30.424;2024-02-26T21:49:59;1032.5;;;6.7;62
74437;BME280;62868;52.360;30.424;2024-02-26T21:54:57;1032.6;;;6.6;62
74437;BME280;62868;52.360;30.424;2024-02-26T22:00:01;1032.7;;;6.6;62
74437;BME280;62868;52.360;30.424;2024-02-26T22:04:35;1032.7;;;6.5;62
74437;BME280;62868;52.360;30.424;2024-02-26T22:09:33;1032.8;;;6.6;62
74437;BME280;62868;52.360;30.424;2024-02-26T22:14:43;1032.8;;;6.5;61.9
74437;BME280;62868;52.360;30.424;2024-02-26T22:19:49;1032.8;;;6.4;61.9
74437;BME280;62868;52.360;30.424;2024-02-26T22:24:59;1032.9;;;6.4;62
74437;BME280;62868;52.360;30.424;2024-02-26T22:29:17;1033;;;6.3;62
74437;BME280;62868;52.360;30.424;2024-02-26T22:34:59;1033;;;6.3;62
74437;BME280;62868;52.360;30.424;2024-02-26T22:39:41;1033.1;;;6.2;62
74437;BME280;62868;52.360;30.424;2024-02-26T22:44:17;1033.1;;;6.2;62
74437;BME280;62868;52.360;30.424;2024-02-26T22:49:25;1033.1;;;6.2;62
74437;BME280;62868;52.360;30.424;2024-02-26T22:54:17;1033;;;6.1;62
74437;BME280;62868;52.360;30.424;2024-02-26T22:59:31;1033.1;;;6.1;62
74437;BME280;62868;52.360;30.424;2024-02-26T23:04:45;1033.1;;;6;62.1
74437;BME280;62868;52.360;30.424;2024-02-26T23:09:41;1033.2;;;6;62.1
74437;BME280;62868;52.360;30.424;2024-02-26T23:14:33;1033.2;;;6;62.1
74437;BME280;62868;52.360;30.424;2024-02-26T23:19:19;1033.3;;;6;62.1
74437;BME280;62868;52.360;30.424;2024-02-26T23:24:47;1033.3;;;6;62.1
74437;BME280;62868;52.360;30.424;2024-02-26T23:29:17;1033.3;;;5.9;62.1
74437;BME280;62868;52.360;30.424;2024-02-26T23:34:31;1033.3;;;5.9;62.1
74437;BME280;62868;52.360;30.424;2024-02-26T23:39:33;1033.3;;;5.9;62.1
74437;BME280;62868;52.360;30.424;2024-02-26T23:44:47;1033.3;;;5.9;62.2
74437;BME280;62868;52.360;30.424;2024-02-26T23:49:39;1033.3;;;5.8;62.2
74437;BME280;62868;52.360;30.424;2024-02-26T23:54:47;1033.2;;;5.8;62.3
74437;BME280;62868;52.360;30.424;2024-02-26T23:59:25;1033.2;;;5.7;62.3
